Calgary, Canada
Current Conditions -  °F | °C
As of 9:00 PM on Wednesday 22 Oct 2014 (Local Time) from CYYC Reporting Station
Scattered Clouds Scattered Clouds  
Wind Chill: 50°   Ceiling: Unl
Heat Index: 50°   Visibility: 15mi
Dew Point: 32°   Wind: 8mph
Humidity: 50%   Direction: 170°S
Pressure: 29.63"   Gusts: NA
Location:  51.05°N, 114.06°W
Report Text: CYYC 230300Z 17007KT 15SM SCT220 10/00 A2963 RMK CI3 SLP056 DENSITY ALT 4200FT
Loading
Personal Weather Stations






























Interactive Weather Map
Tropical Storm Tracking
New forecast layout! Learn more

10-Day Weather Forecast

Advertisements
Track Severe Weather on mobile